sensor_id;sensor_type;location;lat;lon;timestamp;P1;durP1;ratioP1;P2;durP2;ratioP2
9547;SDS011;4812;51.992;8.648;2023-02-26T00:00:52;7.73;;;4.67;;
9547;SDS011;4812;51.992;8.648;2023-02-26T00:03:19;6.67;;;3.73;;
9547;SDS011;4812;51.992;8.648;2023-02-26T00:05:47;7.40;;;4.20;;
9547;SDS011;4812;51.992;8.648;2023-02-26T00:08:16;5.27;;;4.10;;
9547;SDS011;4812;51.992;8.648;2023-02-26T00:10:44;4.57;;;3.77;;
9547;SDS011;4812;51.992;8.648;2023-02-26T00:13:13;5.23;;;3.73;;
9547;SDS011;4812;51.992;8.648;2023-02-26T00:15:42;5.47;;;3.50;;
9547;SDS011;4812;51.992;8.648;2023-02-26T00:18:11;4.47;;;3.40;;
9547;SDS011;4812;51.992;8.648;2023-02-26T00:20:41;7.10;;;3.33;;
9547;SDS011;4812;51.992;8.648;2023-02-26T00:23:10;5.00;;;3.50;;
9547;SDS011;4812;51.992;8.648;2023-02-26T00:25:39;5.67;;;3.57;;
9547;SDS011;4812;51.992;8.648;2023-02-26T00:28:07;5.20;;;3.47;;
9547;SDS011;4812;51.992;8.648;2023-02-26T00:33:25;7.20;;;3.27;;
9547;SDS011;4812;51.992;8.648;2023-02-26T00:35:54;11.00;;;3.30;;
9547;SDS011;4812;51.992;8.648;2023-02-26T00:38:25;4.87;;;3.30;;
9547;SDS011;4812;51.992;8.648;2023-02-26T00:40:53;6.47;;;3.33;;
9547;SDS011;4812;51.992;8.648;2023-02-26T00:43:23;7.63;;;3.90;;
9547;SDS011;4812;51.992;8.648;2023-02-26T00:45:54;5.43;;;3.43;;
9547;SDS011;4812;51.992;8.648;2023-02-26T00:48:43;5.73;;;3.23;;
9547;SDS011;4812;51.992;8.648;2023-02-26T00:51:17;5.37;;;4.07;;
9547;SDS011;4812;51.992;8.648;2023-02-26T00:53:48;3.93;;;3.53;;
9547;SDS011;4812;51.992;8.648;2023-02-26T00:56:21;9.23;;;3.73;;
9547;SDS011;4812;51.992;8.648;2023-02-26T01:01:47;4.33;;;3.20;;
9547;SDS011;4812;51.992;8.648;2023-02-26T01:07:13;5.50;;;3.40;;
9547;SDS011;4812;51.992;8.648;2023-02-26T01:09:41;3.50;;;3.20;;
9547;SDS011;4812;51.992;8.648;2023-02-26T01:12:11;4.23;;;3.57;;
9547;SDS011;4812;51.992;8.648;2023-02-26T01:14:39;5.17;;;3.43;;
9547;SDS011;4812;51.992;8.648;2023-02-26T01:17:10;5.07;;;3.30;;
9547;SDS011;4812;51.992;8.648;2023-02-26T01:19:41;4.50;;;3.30;;
9547;SDS011;4812;51.992;8.648;2023-02-26T01:22:12;4.00;;;3.60;;
9547;SDS011;4812;51.992;8.648;2023-02-26T01:24:43;5.17;;;4.10;;
9547;SDS011;4812;51.992;8.648;2023-02-26T01:27:12;3.70;;;3.27;;
9547;SDS011;4812;51.992;8.648;2023-02-26T01:32:41;5.17;;;3.67;;
9547;SDS011;4812;51.992;8.648;2023-02-26T01:35:12;4.20;;;3.53;;
9547;SDS011;4812;51.992;8.648;2023-02-26T01:37:58;5.23;;;3.23;;
9547;SDS011;4812;51.992;8.648;2023-02-26T01:40:35;4.57;;;3.40;;
9547;SDS011;4812;51.992;8.648;2023-02-26T01:46:13;4.10;;;3.40;;
9547;SDS011;4812;51.992;8.648;2023-02-26T01:48:47;3.60;;;3.30;;
9547;SDS011;4812;51.992;8.648;2023-02-26T01:51:16;5.27;;;3.30;;
9547;SDS011;4812;51.992;8.648;2023-02-26T01:53:45;4.40;;;3.63;;
9547;SDS011;4812;51.992;8.648;2023-02-26T01:56:14;4.37;;;3.10;;
9547;SDS011;4812;51.992;8.648;2023-02-26T01:58:43;6.57;;;3.13;;
9547;SDS011;4812;51.992;8.648;2023-02-26T02:01:13;4.80;;;3.40;;
9547;SDS011;4812;51.992;8.648;2023-02-26T02:03:41;5.17;;;3.37;;
9547;SDS011;4812;51.992;8.648;2023-02-26T02:06:10;4.13;;;3.80;;
9547;SDS011;4812;51.992;8.648;2023-02-26T02:11:31;3.27;;;2.97;;
9547;SDS011;4812;51.992;8.648;2023-02-26T02:14:00;3.90;;;3.57;;
9547;SDS011;4812;51.992;8.648;2023-02-26T02:17:01;3.40;;;2.77;;
9547;SDS011;4812;51.992;8.648;2023-02-26T02:19:48;3.37;;;3.10;;
9547;SDS011;4812;51.992;8.648;2023-02-26T02:25:45;3.20;;;2.73;;
9547;SDS011;4812;51.992;8.648;2023-02-26T02:28:35;5.63;;;3.57;;
9547;SDS011;4812;51.992;8.648;2023-02-26T02:31:10;3.37;;;3.00;;
9547;SDS011;4812;51.992;8.648;2023-02-26T02:33:40;8.13;;;3.30;;
9547;SDS011;4812;51.992;8.648;2023-02-26T02:36:12;3.50;;;3.20;;
9547;SDS011;4812;51.992;8.648;2023-02-26T02:38:43;6.03;;;3.57;;
9547;SDS011;4812;51.992;8.648;2023-02-26T02:41:13;3.63;;;3.10;;
9547;SDS011;4812;51.992;8.648;2023-02-26T02:46:44;4.47;;;3.27;;
9547;SDS011;4812;51.992;8.648;2023-02-26T02:49:16;3.93;;;3.00;;
9547;SDS011;4812;51.992;8.648;2023-02-26T02:51:47;6.10;;;3.27;;
9547;SDS011;4812;51.992;8.648;2023-02-26T02:54:19;4.93;;;3.10;;
9547;SDS011;4812;51.992;8.648;2023-02-26T02:56:49;3.60;;;3.30;;
9547;SDS011;4812;51.992;8.648;2023-02-26T02:59:22;4.10;;;3.30;;
9547;SDS011;4812;51.992;8.648;2023-02-26T03:04:59;4.00;;;3.20;;
9547;SDS011;4812;51.992;8.648;2023-02-26T03:10:30;4.93;;;3.03;;
9547;SDS011;4812;51.992;8.648;2023-02-26T03:12:59;7.83;;;3.40;;
9547;SDS011;4812;51.992;8.648;2023-02-26T03:15:30;3.37;;;3.07;;
9547;SDS011;4812;51.992;8.648;2023-02-26T03:18:05;3.33;;;2.77;;
9547;SDS011;4812;51.992;8.648;2023-02-26T03:20:42;3.80;;;3.00;;
9547;SDS011;4812;51.992;8.648;2023-02-26T03:26:02;3.63;;;2.90;;
9547;SDS011;4812;51.992;8.648;2023-02-26T03:28:39;4.67;;;3.30;;
9547;SDS011;4812;51.992;8.648;2023-02-26T03:31:10;3.47;;;3.10;;
9547;SDS011;4812;51.992;8.648;2023-02-26T03:33:45;9.93;;;3.00;;
9547;SDS011;4812;51.992;8.648;2023-02-26T03:39:11;5.37;;;3.03;;
9547;SDS011;4812;51.992;8.648;2023-02-26T03:44:47;3.80;;;3.27;;
9547;SDS011;4812;51.992;8.648;2023-02-26T03:47:18;3.30;;;3.00;;
9547;SDS011;4812;51.992;8.648;2023-02-26T03:49:48;3.70;;;3.20;;
9547;SDS011;4812;51.992;8.648;2023-02-26T03:52:19;3.63;;;3.30;;
9547;SDS011;4812;51.992;8.648;2023-02-26T03:55:08;4.17;;;3.30;;
9547;SDS011;4812;51.992;8.648;2023-02-26T03:57:53;5.67;;;3.20;;
9547;SDS011;4812;51.992;8.648;2023-02-26T04:00:30;3.43;;;3.10;;
9547;SDS011;4812;51.992;8.648;2023-02-26T04:03:00;5.93;;;2.90;;
9547;SDS011;4812;51.992;8.648;2023-02-26T04:08:37;3.93;;;3.13;;
9547;SDS011;4812;51.992;8.648;2023-02-26T04:11:07;5.67;;;3.27;;
9547;SDS011;4812;51.992;8.648;2023-02-26T04:13:35;3.40;;;3.10;;
9547;SDS011;4812;51.992;8.648;2023-02-26T04:16:03;4.57;;;2.90;;
9547;SDS011;4812;51.992;8.648;2023-02-26T04:18:32;3.27;;;3.00;;
9547;SDS011;4812;51.992;8.648;2023-02-26T04:21:00;5.10;;;2.80;;
9547;SDS011;4812;51.992;8.648;2023-02-26T04:23:28;3.10;;;2.90;;
9547;SDS011;4812;51.992;8.648;2023-02-26T04:25:56;5.40;;;2.60;;
9547;SDS011;4812;51.992;8.648;2023-02-26T04:31:17;3.23;;;2.60;;
9547;SDS011;4812;51.992;8.648;2023-02-26T04:36:48;5.60;;;3.60;;
9547;SDS011;4812;51.992;8.648;2023-02-26T04:39:15;4.40;;;3.43;;
9547;SDS011;4812;51.992;8.648;2023-02-26T04:41:43;3.40;;;3.20;;
9547;SDS011;4812;51.992;8.648;2023-02-26T04:44:11;3.73;;;3.43;;
9547;SDS011;4812;51.992;8.648;2023-02-26T04:46:41;4.23;;;3.47;;
9547;SDS011;4812;51.992;8.648;2023-02-26T04:49:09;3.30;;;3.00;;
9547;SDS011;4812;51.992;8.648;2023-02-26T04:54:29;4.67;;;3.30;;
9547;SDS011;4812;51.992;8.648;2023-02-26T04:56:56;5.37;;;3.10;;
9547;SDS011;4812;51.992;8.648;2023-02-26T04:59:24;3.47;;;3.00;;
9547;SDS011;4812;51.992;8.648;2023-02-26T05:01:53;5.83;;;2.80;;
9547;SDS011;4812;51.992;8.648;2023-02-26T05:04:21;4.30;;;2.97;;
9547;SDS011;4812;51.992;8.648;2023-02-26T05:06:52;5.17;;;3.10;;
9547;SDS011;4812;51.992;8.648;2023-02-26T05:09:21;3.33;;;3.03;;
9547;SDS011;4812;51.992;8.648;2023-02-26T05:11:48;5.80;;;3.20;;
9547;SDS011;4812;51.992;8.648;2023-02-26T05:17:05;3.40;;;3.10;;
9547;SDS011;4812;51.992;8.648;2023-02-26T05:19:33;3.50;;;3.17;;
9547;SDS011;4812;51.992;8.648;2023-02-26T05:24:59;6.97;;;2.90;;
9547;SDS011;4812;51.992;8.648;2023-02-26T05:27:26;3.33;;;3.00;;
9547;SDS011;4812;51.992;8.648;2023-02-26T05:29:54;7.60;;;3.30;;
9547;SDS011;4812;51.992;8.648;2023-02-26T05:32:23;3.93;;;2.93;;
9547;SDS011;4812;51.992;8.648;2023-02-26T05:34:50;3.70;;;3.30;;
9547;SDS011;4812;51.992;8.648;2023-02-26T05:37:17;4.50;;;3.37;;
9547;SDS011;4812;51.992;8.648;2023-02-26T05:39:45;4.50;;;3.17;;
9547;SDS011;4812;51.992;8.648;2023-02-26T05:42:13;3.50;;;3.13;;
9547;SDS011;4812;51.992;8.648;2023-02-26T05:44:40;3.17;;;2.87;;
9547;SDS011;4812;51.992;8.648;2023-02-26T05:47:08;5.53;;;3.50;;
9547;SDS011;4812;51.992;8.648;2023-02-26T05:49:37;3.43;;;3.13;;
9547;SDS011;4812;51.992;8.648;2023-02-26T05:52:04;3.23;;;2.97;;
9547;SDS011;4812;51.992;8.648;2023-02-26T05:57:39;3.93;;;3.13;;
9547;SDS011;4812;51.992;8.648;2023-02-26T06:00:08;4.07;;;3.30;;
9547;SDS011;4812;51.992;8.648;2023-02-26T06:02:39;7.77;;;3.77;;
9547;SDS011;4812;51.992;8.648;2023-02-26T06:05:09;8.07;;;3.47;;
9547;SDS011;4812;51.992;8.648;2023-02-26T06:07:36;4.23;;;3.47;;
9547;SDS011;4812;51.992;8.648;2023-02-26T06:10:04;4.73;;;3.33;;
9547;SDS011;4812;51.992;8.648;2023-02-26T06:15:22;3.70;;;3.40;;
9547;SDS011;4812;51.992;8.648;2023-02-26T06:17:50;3.77;;;3.20;;
9547;SDS011;4812;51.992;8.648;2023-02-26T06:20:18;3.93;;;2.97;;
9547;SDS011;4812;51.992;8.648;2023-02-26T06:22:46;3.23;;;2.93;;
9547;SDS011;4812;51.992;8.648;2023-02-26T06:28:12;6.27;;;3.13;;
9547;SDS011;4812;51.992;8.648;2023-02-26T06:30:39;4.30;;;2.87;;
9547;SDS011;4812;51.992;8.648;2023-02-26T06:33:07;6.27;;;3.17;;
9547;SDS011;4812;51.992;8.648;2023-02-26T06:38:38;3.30;;;3.03;;
9547;SDS011;4812;51.992;8.648;2023-02-26T06:41:06;3.33;;;3.03;;
9547;SDS011;4812;51.992;8.648;2023-02-26T06:43:33;5.50;;;3.53;;
9547;SDS011;4812;51.992;8.648;2023-02-26T06:46:01;5.83;;;4.10;;
9547;SDS011;4812;51.992;8.648;2023-02-26T06:48:29;4.93;;;3.70;;
9547;SDS011;4812;51.992;8.648;2023-02-26T06:50:57;8.83;;;3.60;;
9547;SDS011;4812;51.992;8.648;2023-02-26T06:53:24;5.83;;;3.47;;
9547;SDS011;4812;51.992;8.648;2023-02-26T06:55:53;3.90;;;3.07;;
9547;SDS011;4812;51.992;8.648;2023-02-26T06:58:21;3.90;;;3.50;;
9547;SDS011;4812;51.992;8.648;2023-02-26T07:03:48;3.43;;;3.10;;
9547;SDS011;4812;51.992;8.648;2023-02-26T07:06:16;4.17;;;3.10;;
9547;SDS011;4812;51.992;8.648;2023-02-26T07:08:53;5.23;;;3.37;;
9547;SDS011;4812;51.992;8.648;2023-02-26T07:11:22;3.53;;;2.50;;
9547;SDS011;4812;51.992;8.648;2023-02-26T07:13:50;2.70;;;2.50;;
9547;SDS011;4812;51.992;8.648;2023-02-26T07:16:18;2.43;;;2.23;;
9547;SDS011;4812;51.992;8.648;2023-02-26T07:21:48;3.00;;;2.57;;
9547;SDS011;4812;51.992;8.648;2023-02-26T07:24:15;4.53;;;2.40;;
9547;SDS011;4812;51.992;8.648;2023-02-26T07:26:44;6.23;;;3.40;;
9547;SDS011;4812;51.992;8.648;2023-02-26T07:29:11;3.00;;;2.70;;
9547;SDS011;4812;51.992;8.648;2023-02-26T07:31:40;3.73;;;2.53;;
9547;SDS011;4812;51.992;8.648;2023-02-26T07:34:07;5.43;;;2.70;;
9547;SDS011;4812;51.992;8.648;2023-02-26T07:39:37;4.80;;;3.30;;
9547;SDS011;4812;51.992;8.648;2023-02-26T07:42:06;4.30;;;2.87;;
9547;SDS011;4812;51.992;8.648;2023-02-26T07:44:34;4.10;;;3.70;;
9547;SDS011;4812;51.992;8.648;2023-02-26T07:47:01;8.83;;;3.07;;
9547;SDS011;4812;51.992;8.648;2023-02-26T07:52:27;5.57;;;3.20;;
9547;SDS011;4812;51.992;8.648;2023-02-26T07:54:54;3.77;;;3.40;;
9547;SDS011;4812;51.992;8.648;2023-02-26T07:57:23;3.67;;;3.47;;
9547;SDS011;4812;51.992;8.648;2023-02-26T07:59:51;5.03;;;4.00;;
9547;SDS011;4812;51.992;8.648;2023-02-26T08:05:17;5.43;;;5.13;;
9547;SDS011;4812;51.992;8.648;2023-02-26T08:07:45;6.50;;;5.67;;
9547;SDS011;4812;51.992;8.648;2023-02-26T08:10:12;5.90;;;5.50;;
9547;SDS011;4812;51.992;8.648;2023-02-26T08:13:11;5.93;;;5.43;;
9547;SDS011;4812;51.992;8.648;2023-02-26T08:15:39;6.53;;;6.03;;
9547;SDS011;4812;51.992;8.648;2023-02-26T08:18:09;6.87;;;6.10;;
9547;SDS011;4812;51.992;8.648;2023-02-26T08:20:37;7.53;;;5.57;;
9547;SDS011;4812;51.992;8.648;2023-02-26T08:23:06;6.43;;;5.93;;
9547;SDS011;4812;51.992;8.648;2023-02-26T08:25:34;6.17;;;5.70;;
9547;SDS011;4812;51.992;8.648;2023-02-26T08:30:57;6.50;;;6.10;;
9547;SDS011;4812;51.992;8.648;2023-02-26T08:33:25;6.00;;;5.60;;
9547;SDS011;4812;51.992;8.648;2023-02-26T08:35:53;6.73;;;6.17;;
9547;SDS011;4812;51.992;8.648;2023-02-26T08:38:24;12.47;;;8.67;;
9547;SDS011;4812;51.992;8.648;2023-02-26T08:40:51;7.57;;;6.53;;
9547;SDS011;4812;51.992;8.648;2023-02-26T08:43:19;5.90;;;5.40;;
9547;SDS011;4812;51.992;8.648;2023-02-26T08:48:50;6.63;;;6.07;;
9547;SDS011;4812;51.992;8.648;2023-02-26T08:51:18;8.00;;;6.03;;
9547;SDS011;4812;51.992;8.648;2023-02-26T08:53:45;5.40;;;5.00;;
9547;SDS011;4812;51.992;8.648;2023-02-26T08:56:15;5.30;;;5.00;;
9547;SDS011;4812;51.992;8.648;2023-02-26T08:58:43;6.00;;;5.50;;
9547;SDS011;4812;51.992;8.648;2023-02-26T09:01:10;5.13;;;4.70;;
9547;SDS011;4812;51.992;8.648;2023-02-26T09:03:38;5.33;;;4.83;;
9547;SDS011;4812;51.992;8.648;2023-02-26T09:06:07;6.80;;;5.07;;
9547;SDS011;4812;51.992;8.648;2023-02-26T09:08:34;5.57;;;5.07;;
9547;SDS011;4812;51.992;8.648;2023-02-26T09:11:02;6.07;;;5.47;;
9547;SDS011;4812;51.992;8.648;2023-02-26T09:13:30;5.40;;;5.10;;
9547;SDS011;4812;51.992;8.648;2023-02-26T09:18:56;5.80;;;5.33;;
9547;SDS011;4812;51.992;8.648;2023-02-26T09:21:25;5.60;;;5.23;;
9547;SDS011;4812;51.992;8.648;2023-02-26T09:23:53;5.77;;;5.17;;
9547;SDS011;4812;51.992;8.648;2023-02-26T09:26:20;6.13;;;5.53;;
9547;SDS011;4812;51.992;8.648;2023-02-26T09:31:47;5.80;;;5.30;;
9547;SDS011;4812;51.992;8.648;2023-02-26T09:34:15;5.43;;;5.13;;
9547;SDS011;4812;51.992;8.648;2023-02-26T09:37:14;5.53;;;5.07;;
9547;SDS011;4812;51.992;8.648;2023-02-26T09:39:42;5.50;;;5.10;;
9547;SDS011;4812;51.992;8.648;2023-02-26T09:42:10;5.20;;;4.90;;
9547;SDS011;4812;51.992;8.648;2023-02-26T09:44:43;5.10;;;4.80;;
9547;SDS011;4812;51.992;8.648;2023-02-26T09:47:12;5.33;;;5.03;;
9547;SDS011;4812;51.992;8.648;2023-02-26T09:52:44;5.80;;;5.40;;
9547;SDS011;4812;51.992;8.648;2023-02-26T09:55:16;5.40;;;5.03;;
9547;SDS011;4812;51.992;8.648;2023-02-26T09:57:47;6.07;;;5.23;;
9547;SDS011;4812;51.992;8.648;2023-02-26T10:00:19;5.20;;;4.73;;
9547;SDS011;4812;51.992;8.648;2023-02-26T10:02:52;5.80;;;5.20;;
9547;SDS011;4812;51.992;8.648;2023-02-26T10:05:25;5.17;;;4.67;;
9547;SDS011;4812;51.992;8.648;2023-02-26T10:10:49;5.03;;;4.70;;
9547;SDS011;4812;51.992;8.648;2023-02-26T10:13:22;5.67;;;4.60;;
9547;SDS011;4812;51.992;8.648;2023-02-26T10:15:55;4.67;;;4.37;;
9547;SDS011;4812;51.992;8.648;2023-02-26T10:18:25;4.60;;;4.40;;
9547;SDS011;4812;51.992;8.648;2023-02-26T10:20:57;5.03;;;4.60;;
9547;SDS011;4812;51.992;8.648;2023-02-26T10:24:08;4.97;;;4.50;;
9547;SDS011;4812;51.992;8.648;2023-02-26T10:26:44;5.47;;;4.97;;
9547;SDS011;4812;51.992;8.648;2023-02-26T10:32:06;5.27;;;4.97;;
9547;SDS011;4812;51.992;8.648;2023-02-26T10:34:44;5.20;;;4.90;;
9547;SDS011;4812;51.992;8.648;2023-02-26T10:37:15;5.30;;;5.00;;
9547;SDS011;4812;51.992;8.648;2023-02-26T10:39:47;5.57;;;5.17;;
9547;SDS011;4812;51.992;8.648;2023-02-26T10:42:46;4.97;;;4.67;;
9547;SDS011;4812;51.992;8.648;2023-02-26T10:45:21;5.90;;;5.20;;
9547;SDS011;4812;51.992;8.648;2023-02-26T10:47:58;6.30;;;5.80;;
9547;SDS011;4812;51.992;8.648;2023-02-26T10:50:31;6.40;;;5.90;;
9547;SDS011;4812;51.992;8.648;2023-02-26T10:52:58;5.23;;;5.00;;
9547;SDS011;4812;51.992;8.648;2023-02-26T10:55:31;5.43;;;4.70;;
9547;SDS011;4812;51.992;8.648;2023-02-26T10:58:05;4.70;;;4.40;;
9547;SDS011;4812;51.992;8.648;2023-02-26T11:00:34;6.23;;;4.83;;
9547;SDS011;4812;51.992;8.648;2023-02-26T11:03:34;5.20;;;4.80;;
9547;SDS011;4812;51.992;8.648;2023-02-26T11:06:04;5.30;;;4.90;;
9547;SDS011;4812;51.992;8.648;2023-02-26T11:08:33;5.30;;;4.90;;
9547;SDS011;4812;51.992;8.648;2023-02-26T11:11:03;5.10;;;4.77;;
9547;SDS011;4812;51.992;8.648;2023-02-26T11:13:33;6.47;;;6.07;;
9547;SDS011;4812;51.992;8.648;2023-02-26T11:16:04;5.83;;;5.53;;
9547;SDS011;4812;51.992;8.648;2023-02-26T11:18:35;6.10;;;5.60;;
9547;SDS011;4812;51.992;8.648;2023-02-26T11:21:06;6.00;;;5.57;;
9547;SDS011;4812;51.992;8.648;2023-02-26T11:26:19;5.70;;;5.40;;
9547;SDS011;4812;51.992;8.648;2023-02-26T11:31:53;6.00;;;5.60;;
9547;SDS011;4812;51.992;8.648;2023-02-26T11:34:24;5.73;;;5.43;;
9547;SDS011;4812;51.992;8.648;2023-02-26T11:36:52;6.63;;;6.17;;
9547;SDS011;4812;51.992;8.648;2023-02-26T11:39:23;6.23;;;5.83;;
9547;SDS011;4812;51.992;8.648;2023-02-26T11:41:52;6.03;;;5.73;;
9547;SDS011;4812;51.992;8.648;2023-02-26T11:44:25;5.87;;;5.57;;
9547;SDS011;4812;51.992;8.648;2023-02-26T11:47:01;6.40;;;6.00;;
9547;SDS011;4812;51.992;8.648;2023-02-26T11:49:31;6.13;;;5.73;;
9547;SDS011;4812;51.992;8.648;2023-02-26T11:54:33;6.63;;;6.23;;
9547;SDS011;4812;51.992;8.648;2023-02-26T11:57:04;7.03;;;6.43;;
9547;SDS011;4812;51.992;8.648;2023-02-26T11:59:33;6.77;;;6.13;;
9547;SDS011;4812;51.992;8.648;2023-02-26T12:05:01;6.90;;;6.17;;
9547;SDS011;4812;51.992;8.648;2023-02-26T12:07:31;5.80;;;5.40;;
9547;SDS011;4812;51.992;8.648;2023-02-26T12:09:59;6.93;;;6.43;;
9547;SDS011;4812;51.992;8.648;2023-02-26T12:12:33;6.60;;;6.20;;
9547;SDS011;4812;51.992;8.648;2023-02-26T12:15:13;6.17;;;5.70;;
9547;SDS011;4812;51.992;8.648;2023-02-26T12:20:50;6.47;;;6.00;;
9547;SDS011;4812;51.992;8.648;2023-02-26T12:23:36;6.43;;;6.03;;
9547;SDS011;4812;51.992;8.648;2023-02-26T12:26:15;6.50;;;6.10;;
9547;SDS011;4812;51.992;8.648;2023-02-26T12:28:54;6.43;;;6.13;;
9547;SDS011;4812;51.992;8.648;2023-02-26T12:31:31;7.07;;;6.47;;
9547;SDS011;4812;51.992;8.648;2023-02-26T12:34:13;6.60;;;6.20;;
9547;SDS011;4812;51.992;8.648;2023-02-26T12:39:31;6.60;;;6.20;;
9547;SDS011;4812;51.992;8.648;2023-02-26T12:45:13;6.50;;;6.10;;
9547;SDS011;4812;51.992;8.648;2023-02-26T12:47:50;6.63;;;6.33;;
9547;SDS011;4812;51.992;8.648;2023-02-26T12:53:42;6.70;;;6.33;;
9547;SDS011;4812;51.992;8.648;2023-02-26T12:56:22;6.47;;;6.07;;
9547;SDS011;4812;51.992;8.648;2023-02-26T12:59:04;6.47;;;5.97;;
9547;SDS011;4812;51.992;8.648;2023-02-26T13:01:44;6.27;;;5.87;;
9547;SDS011;4812;51.992;8.648;2023-02-26T13:04:31;6.40;;;5.90;;
9547;SDS011;4812;51.992;8.648;2023-02-26T13:07:17;6.60;;;6.10;;
9547;SDS011;4812;51.992;8.648;2023-02-26T13:09:53;6.47;;;6.07;;
9547;SDS011;4812;51.992;8.648;2023-02-26T13:12:29;6.53;;;6.13;;
9547;SDS011;4812;51.992;8.648;2023-02-26T13:15:06;6.57;;;6.20;;
9547;SDS011;4812;51.992;8.648;2023-02-26T13:17:43;6.70;;;6.20;;
9547;SDS011;4812;51.992;8.648;2023-02-26T13:20:15;6.70;;;6.30;;
9547;SDS011;4812;51.992;8.648;2023-02-26T13:22:46;7.07;;;6.67;;
9547;SDS011;4812;51.992;8.648;2023-02-26T13:25:16;7.50;;;6.90;;
9547;SDS011;4812;51.992;8.648;2023-02-26T13:30:47;6.80;;;6.40;;
9547;SDS011;4812;51.992;8.648;2023-02-26T13:33:17;7.30;;;6.70;;
9547;SDS011;4812;51.992;8.648;2023-02-26T13:35:46;6.87;;;6.53;;
9547;SDS011;4812;51.992;8.648;2023-02-26T13:38:18;7.13;;;6.63;;
9547;SDS011;4812;51.992;8.648;2023-02-26T13:40:52;6.50;;;6.20;;
9547;SDS011;4812;51.992;8.648;2023-02-26T13:52:53;6.77;;;6.30;;
9547;SDS011;4812;51.992;8.648;2023-02-26T13:55:35;7.30;;;6.80;;
9547;SDS011;4812;51.992;8.648;2023-02-26T13:58:15;7.43;;;6.80;;
9547;SDS011;4812;51.992;8.648;2023-02-26T14:00:45;7.10;;;6.70;;
9547;SDS011;4812;51.992;8.648;2023-02-26T14:09:02;6.83;;;6.37;;
9547;SDS011;4812;51.992;8.648;2023-02-26T14:20:15;7.23;;;6.80;;
9547;SDS011;4812;51.992;8.648;2023-02-26T14:22:48;7.23;;;6.83;;
9547;SDS011;4812;51.992;8.648;2023-02-26T14:25:20;6.83;;;6.43;;
9547;SDS011;4812;51.992;8.648;2023-02-26T14:28:17;7.23;;;6.83;;
9547;SDS011;4812;51.992;8.648;2023-02-26T14:33:59;7.47;;;6.87;;
9547;SDS011;4812;51.992;8.648;2023-02-26T14:36:38;6.93;;;6.50;;
9547;SDS011;4812;51.992;8.648;2023-02-26T14:39:09;7.10;;;6.70;;
9547;SDS011;4812;51.992;8.648;2023-02-26T14:41:45;6.90;;;6.50;;
9547;SDS011;4812;51.992;8.648;2023-02-26T14:44:13;7.00;;;6.50;;
9547;SDS011;4812;51.992;8.648;2023-02-26T14:46:42;6.90;;;6.50;;
9547;SDS011;4812;51.992;8.648;2023-02-26T14:49:12;7.20;;;6.70;;
9547;SDS011;4812;51.992;8.648;2023-02-26T14:51:46;7.30;;;6.90;;
9547;SDS011;4812;51.992;8.648;2023-02-26T14:54:23;7.20;;;6.80;;
9547;SDS011;4812;51.992;8.648;2023-02-26T14:57:01;6.90;;;6.60;;
9547;SDS011;4812;51.992;8.648;2023-02-26T15:02:32;7.20;;;6.70;;
9547;SDS011;4812;51.992;8.648;2023-02-26T15:05:28;7.13;;;6.73;;
9547;SDS011;4812;51.992;8.648;2023-02-26T15:08:43;7.20;;;6.70;;
9547;SDS011;4812;51.992;8.648;2023-02-26T15:11:22;7.00;;;6.50;;
9547;SDS011;4812;51.992;8.648;2023-02-26T15:14:14;7.03;;;6.73;;
9547;SDS011;4812;51.992;8.648;2023-02-26T15:16:50;7.20;;;6.73;;
9547;SDS011;4812;51.992;8.648;2023-02-26T15:19:29;7.50;;;6.97;;
9547;SDS011;4812;51.992;8.648;2023-02-26T15:22:10;7.53;;;7.03;;
9547;SDS011;4812;51.992;8.648;2023-02-26T15:24:45;7.27;;;6.77;;
9547;SDS011;4812;51.992;8.648;2023-02-26T15:27:14;7.03;;;6.63;;
9547;SDS011;4812;51.992;8.648;2023-02-26T15:29:44;6.70;;;6.40;;
9547;SDS011;4812;51.992;8.648;2023-02-26T15:32:14;8.00;;;7.30;;
9547;SDS011;4812;51.992;8.648;2023-02-26T15:34:44;7.63;;;6.93;;
9547;SDS011;4812;51.992;8.648;2023-02-26T15:37:17;7.10;;;6.70;;
9547;SDS011;4812;51.992;8.648;2023-02-26T15:39:47;6.60;;;6.30;;
9547;SDS011;4812;51.992;8.648;2023-02-26T15:42:16;6.80;;;6.50;;
9547;SDS011;4812;51.992;8.648;2023-02-26T15:44:45;7.30;;;6.80;;
9547;SDS011;4812;51.992;8.648;2023-02-26T15:47:22;7.00;;;6.57;;
9547;SDS011;4812;51.992;8.648;2023-02-26T15:49:50;7.47;;;7.07;;
9547;SDS011;4812;51.992;8.648;2023-02-26T15:55:13;6.37;;;6.07;;
9547;SDS011;4812;51.992;8.648;2023-02-26T16:00:32;7.70;;;7.20;;
9547;SDS011;4812;51.992;8.648;2023-02-26T16:03:02;7.33;;;6.87;;
9547;SDS011;4812;51.992;8.648;2023-02-26T16:05:30;7.20;;;6.70;;
9547;SDS011;4812;51.992;8.648;2023-02-26T16:07:57;7.30;;;6.80;;
9547;SDS011;4812;51.992;8.648;2023-02-26T16:10:26;7.00;;;6.60;;
9547;SDS011;4812;51.992;8.648;2023-02-26T16:12:55;7.17;;;6.67;;
9547;SDS011;4812;51.992;8.648;2023-02-26T16:15:25;6.90;;;6.50;;
9547;SDS011;4812;51.992;8.648;2023-02-26T16:17:56;7.90;;;7.20;;
9547;SDS011;4812;51.992;8.648;2023-02-26T16:23:18;8.23;;;7.67;;
9547;SDS011;4812;51.992;8.648;2023-02-26T16:25:49;7.80;;;7.27;;
9547;SDS011;4812;51.992;8.648;2023-02-26T16:31:06;8.03;;;7.43;;
9547;SDS011;4812;51.992;8.648;2023-02-26T16:33:50;7.40;;;6.90;;
9547;SDS011;4812;51.992;8.648;2023-02-26T16:36:22;7.50;;;7.00;;
9547;SDS011;4812;51.992;8.648;2023-02-26T16:38:56;7.00;;;6.63;;
9547;SDS011;4812;51.992;8.648;2023-02-26T16:41:26;7.60;;;7.10;;
9547;SDS011;4812;51.992;8.648;2023-02-26T16:43:56;7.30;;;6.80;;
9547;SDS011;4812;51.992;8.648;2023-02-26T16:49:27;7.03;;;6.73;;
9547;SDS011;4812;51.992;8.648;2023-02-26T16:51:56;7.00;;;6.60;;
9547;SDS011;4812;51.992;8.648;2023-02-26T16:57:14;7.70;;;7.10;;
9547;SDS011;4812;51.992;8.648;2023-02-26T16:59:45;7.63;;;7.23;;
9547;SDS011;4812;51.992;8.648;2023-02-26T17:02:17;7.30;;;6.80;;
9547;SDS011;4812;51.992;8.648;2023-02-26T17:04:49;6.67;;;6.23;;
9547;SDS011;4812;51.992;8.648;2023-02-26T17:07:21;6.40;;;6.10;;
9547;SDS011;4812;51.992;8.648;2023-02-26T17:09:51;6.33;;;5.93;;
9547;SDS011;4812;51.992;8.648;2023-02-26T17:12:22;6.60;;;6.10;;
9547;SDS011;4812;51.992;8.648;2023-02-26T17:14:51;6.90;;;6.40;;
9547;SDS011;4812;51.992;8.648;2023-02-26T17:17:20;6.50;;;6.10;;
9547;SDS011;4812;51.992;8.648;2023-02-26T17:19:49;7.10;;;6.60;;
9547;SDS011;4812;51.992;8.648;2023-02-26T17:22:18;6.97;;;6.40;;
9547;SDS011;4812;51.992;8.648;2023-02-26T17:24:48;6.43;;;6.03;;
9547;SDS011;4812;51.992;8.648;2023-02-26T17:27:21;6.37;;;6.00;;
9547;SDS011;4812;51.992;8.648;2023-02-26T17:29:52;6.40;;;6.00;;
9547;SDS011;4812;51.992;8.648;2023-02-26T17:32:20;6.50;;;6.10;;
9547;SDS011;4812;51.992;8.648;2023-02-26T17:34:51;6.57;;;6.00;;
9547;SDS011;4812;51.992;8.648;2023-02-26T17:37:19;6.63;;;6.13;;
9547;SDS011;4812;51.992;8.648;2023-02-26T17:39:47;6.57;;;6.07;;
9547;SDS011;4812;51.992;8.648;2023-02-26T17:42:16;6.40;;;6.00;;
9547;SDS011;4812;51.992;8.648;2023-02-26T17:44:46;6.60;;;6.30;;
9547;SDS011;4812;51.992;8.648;2023-02-26T17:47:14;6.60;;;6.13;;
9547;SDS011;4812;51.992;8.648;2023-02-26T17:49:43;6.73;;;6.13;;
9547;SDS011;4812;51.992;8.648;2023-02-26T17:55:10;6.43;;;6.03;;
9547;SDS011;4812;51.992;8.648;2023-02-26T17:57:37;6.20;;;5.77;;
9547;SDS011;4812;51.992;8.648;2023-02-26T18:00:05;6.17;;;5.77;;
9547;SDS011;4812;51.992;8.648;2023-02-26T18:02:40;6.50;;;6.07;;
9547;SDS011;4812;51.992;8.648;2023-02-26T18:05:08;6.20;;;5.80;;
9547;SDS011;4812;51.992;8.648;2023-02-26T18:10:40;6.50;;;6.00;;
9547;SDS011;4812;51.992;8.648;2023-02-26T18:13:08;6.30;;;5.80;;
9547;SDS011;4812;51.992;8.648;2023-02-26T18:15:36;6.60;;;6.30;;
9547;SDS011;4812;51.992;8.648;2023-02-26T18:18:04;6.67;;;6.10;;
9547;SDS011;4812;51.992;8.648;2023-02-26T18:20:32;6.07;;;5.77;;
9547;SDS011;4812;51.992;8.648;2023-02-26T18:22:59;6.00;;;5.70;;
9547;SDS011;4812;51.992;8.648;2023-02-26T18:25:26;6.70;;;6.03;;
9547;SDS011;4812;51.992;8.648;2023-02-26T18:27:55;6.63;;;6.03;;
9547;SDS011;4812;51.992;8.648;2023-02-26T18:30:26;6.37;;;5.87;;
9547;SDS011;4812;51.992;8.648;2023-02-26T18:32:55;6.30;;;5.97;;
9547;SDS011;4812;51.992;8.648;2023-02-26T18:35:23;6.40;;;6.00;;
9547;SDS011;4812;51.992;8.648;2023-02-26T18:37:51;6.57;;;6.07;;
9547;SDS011;4812;51.992;8.648;2023-02-26T18:40:20;6.50;;;6.00;;
9547;SDS011;4812;51.992;8.648;2023-02-26T18:42:48;6.07;;;5.77;;
9547;SDS011;4812;51.992;8.648;2023-02-26T18:48:06;6.90;;;6.23;;